Terminal Aerodrome Forecast
Issued by NWS

Home | Current Version | Previous Version | Text Only | Print | Product List | Glossary On
Versions: 1 2 3 4 5 6 7 8 9 10 11 12 13 14 15 16 17
771
FTUS45 KRIW 281825 AAA
TAFCOD
TAF AMD
KCOD 281825Z 2818/2918 26013KT P6SM SCT120 BKN200
     FM290200 20006KT P6SM SCT150
     FM291500 VRB04KT P6SM FEW090
      AMD LTD TO CLD VIS AND WIND=

USA.gov is the U.S. government's official web portal to all federal, state and local government web resources and services.